createdAt,value
2018-03-25T00:02:05.370Z,-0.70
2018-03-25T00:04:34.040Z,-0.70
2018-03-25T00:07:03.486Z,-0.70
2018-03-25T00:09:32.448Z,-0.70
2018-03-25T00:12:02.350Z,-0.80
2018-03-25T00:14:30.465Z,-0.80
2018-03-25T00:16:59.387Z,-0.90
2018-03-25T00:19:27.707Z,-0.90
2018-03-25T00:21:56.431Z,-0.90
2018-03-25T00:24:25.944Z,-0.90
2018-03-25T00:26:54.085Z,-0.90
2018-03-25T00:29:22.002Z,-0.90
2018-03-25T00:31:50.733Z,-0.90
2018-03-25T00:34:19.068Z,-0.90
2018-03-25T00:36:47.518Z,-1.00
2018-03-25T00:39:16.180Z,-1.10
2018-03-25T00:41:44.117Z,-1.10
2018-03-25T00:44:13.948Z,-1.10
2018-03-25T00:46:42.659Z,-1.10
2018-03-25T00:49:12.382Z,-1.20
2018-03-25T00:51:41.282Z,-1.30
2018-03-25T00:54:10.793Z,-1.40
2018-03-25T00:56:39.966Z,-1.40
2018-03-25T00:59:08.261Z,-1.40
2018-03-25T01:01:37.600Z,-1.50
2018-03-25T01:04:06.931Z,-1.40
2018-03-25T01:06:36.939Z,-1.30
2018-03-25T01:09:05.344Z,-1.40
2018-03-25T01:11:34.144Z,-1.30
2018-03-25T01:14:03.747Z,-1.40
2018-03-25T01:16:32.118Z,-1.40
2018-03-25T01:19:00.154Z,-1.30
2018-03-25T01:21:28.096Z,-1.40
2018-03-25T01:23:57.489Z,-1.40
2018-03-25T01:26:27.907Z,-1.30
2018-03-25T01:28:56.514Z,-1.40
2018-03-25T01:31:25.109Z,-1.30
2018-03-25T01:33:53.594Z,-1.40
2018-03-25T01:36:22.577Z,-1.40
2018-03-25T01:38:52.056Z,-1.40
2018-03-25T01:41:20.609Z,-1.40
2018-03-25T01:43:48.585Z,-1.40
2018-03-25T01:46:17.145Z,-1.50
2018-03-25T01:48:45.774Z,-1.50
2018-03-25T01:51:14.667Z,-1.60
2018-03-25T01:53:42.784Z,-1.60
2018-03-25T01:56:11.383Z,-1.50
2018-03-25T01:58:39.890Z,-1.60
2018-03-25T02:01:08.599Z,-1.70
2018-03-25T02:03:36.536Z,-1.70
2018-03-25T02:06:04.572Z,-1.60
2018-03-25T02:08:32.485Z,-1.70
2018-03-25T02:11:00.430Z,-1.70
2018-03-25T02:13:29.290Z,-1.70
2018-03-25T02:15:58.008Z,-1.80
2018-03-25T02:18:25.946Z,-1.80
2018-03-25T02:20:54.680Z,-1.90
2018-03-25T02:23:22.580Z,-1.90
2018-03-25T02:25:50.536Z,-1.90
2018-03-25T02:28:18.426Z,-1.90
2018-03-25T02:30:47.174Z,-1.90
2018-03-25T02:33:15.109Z,-1.90
2018-03-25T02:35:43.082Z,-1.80
2018-03-25T02:38:10.988Z,-1.90
2018-03-25T02:40:38.880Z,-1.80
2018-03-25T02:43:06.841Z,-1.80
2018-03-25T02:45:34.771Z,-1.80
2018-03-25T02:48:02.721Z,-1.80
2018-03-25T02:50:31.373Z,-2.00
2018-03-25T02:52:59.341Z,-2.00
2018-03-25T02:55:27.234Z,-2.00
2018-03-25T02:57:55.945Z,-1.90
2018-03-25T03:00:23.832Z,-2.00
2018-03-25T03:02:51.786Z,-2.00
2018-03-25T03:07:59.400Z,-2.30
2018-03-25T03:10:27.293Z,-2.20
2018-03-25T03:12:55.233Z,-2.20
2018-03-25T03:15:23.142Z,-2.10
2018-03-25T03:17:51.098Z,-2.10
2018-03-25T03:20:18.968Z,-2.10
2018-03-25T03:22:46.917Z,-2.10
2018-03-25T03:25:14.800Z,-2.10
2018-03-25T03:27:42.739Z,-2.20
2018-03-25T03:30:11.390Z,-2.10
2018-03-25T03:32:39.384Z,-2.10
2018-03-25T03:35:08.848Z,-2.20
2018-03-25T03:37:36.834Z,-2.20
2018-03-25T03:40:04.780Z,-2.20
2018-03-25T03:42:32.736Z,-2.30
2018-03-25T03:45:00.650Z,-2.20
2018-03-25T03:47:28.626Z,-2.20
2018-03-25T03:49:56.543Z,-2.20
2018-03-25T03:52:26.505Z,-2.20
2018-03-25T03:54:54.431Z,-2.20
2018-03-25T03:57:22.423Z,-2.30
2018-03-25T03:59:50.334Z,-2.30
2018-03-25T04:02:18.300Z,-2.30
2018-03-25T04:04:46.218Z,-2.40
2018-03-25T04:07:14.186Z,-2.30
2018-03-25T04:09:42.082Z,-2.30
2018-03-25T04:12:10.051Z,-2.40
2018-03-25T04:14:37.953Z,-2.40
2018-03-25T04:17:06.696Z,-2.50
2018-03-25T04:19:34.624Z,-2.40
2018-03-25T04:22:03.364Z,-2.60
2018-03-25T04:24:31.264Z,-2.60
2018-03-25T04:26:59.997Z,-2.60
2018-03-25T04:29:27.910Z,-2.60
2018-03-25T04:31:55.894Z,-2.50
2018-03-25T04:34:24.562Z,-2.50
2018-03-25T04:36:52.524Z,-2.50
2018-03-25T04:39:20.429Z,-2.60
2018-03-25T04:41:49.154Z,-2.70
2018-03-25T04:44:17.072Z,-2.70
2018-03-25T04:46:45.051Z,-2.70
2018-03-25T04:49:13.741Z,-2.80
2018-03-25T04:51:42.855Z,-2.80
2018-03-25T04:54:10.798Z,-2.80
2018-03-25T04:56:38.761Z,-2.80
2018-03-25T04:59:06.660Z,-2.70
2018-03-25T05:01:35.375Z,-2.90
2018-03-25T05:04:03.283Z,-2.80
2018-03-25T05:06:31.254Z,-2.70
2018-03-25T05:08:59.163Z,-2.60
2018-03-25T05:11:27.143Z,-2.60
2018-03-25T05:13:55.060Z,-2.70
2018-03-25T05:16:23.026Z,-2.70
2018-03-25T05:18:50.945Z,-2.60
2018-03-25T05:21:18.955Z,-2.60
2018-03-25T05:23:46.934Z,-2.60
2018-03-25T05:26:14.849Z,-2.70
2018-03-25T05:28:42.824Z,-2.60
2018-03-25T05:31:10.735Z,-2.60
2018-03-25T05:33:38.678Z,-2.60
2018-03-25T05:36:06.596Z,-2.70
2018-03-25T05:38:34.592Z,-2.60
2018-03-25T05:41:03.302Z,-2.50
2018-03-25T05:43:31.268Z,-2.50
2018-03-25T05:45:59.184Z,-2.50
2018-03-25T05:48:27.166Z,-2.40
2018-03-25T05:50:55.086Z,-2.40
2018-03-25T05:53:23.059Z,-2.40
2018-03-25T05:55:51.737Z,-2.30
2018-03-25T05:58:19.707Z,-2.30
2018-03-25T06:00:47.615Z,-2.30
2018-03-25T06:03:15.578Z,-2.30
2018-03-25T06:05:43.496Z,-2.20
2018-03-25T06:08:11.466Z,-2.00
2018-03-25T06:10:39.400Z,-1.70
2018-03-25T06:13:09.775Z,-1.70
2018-03-25T06:15:37.738Z,-1.40
2018-03-25T06:18:06.487Z,-1.00
2018-03-25T06:20:37.550Z,-1.00
2018-03-25T06:23:05.830Z,-0.90
2018-03-25T06:25:34.508Z,-0.30
2018-03-25T06:28:02.492Z,-0.30
2018-03-25T06:30:31.184Z,0.60
2018-03-25T06:32:59.920Z,0.90
2018-03-25T06:35:29.255Z,0.90
2018-03-25T06:37:57.212Z,1.30
2018-03-25T06:40:25.179Z,1.60
2018-03-25T06:42:53.156Z,1.80
2018-03-25T06:45:21.065Z,1.90
2018-03-25T06:47:49.162Z,2.00
2018-03-25T06:50:17.075Z,2.30
2018-03-25T06:52:45.048Z,2.70
2018-03-25T06:55:12.968Z,3.20
2018-03-25T06:57:42.176Z,4.10
2018-03-25T07:00:10.125Z,4.10
2018-03-25T07:02:38.096Z,4.30
2018-03-25T07:05:06.065Z,4.80
2018-03-25T07:07:37.286Z,4.60
2018-03-25T07:10:05.474Z,5.10
2018-03-25T07:12:34.669Z,5.70
2018-03-25T07:15:03.398Z,7.00
2018-03-25T07:17:31.380Z,6.90
2018-03-25T07:19:59.288Z,7.60
2018-03-25T07:22:28.071Z,8.70
2018-03-25T07:24:55.988Z,8.70
2018-03-25T07:27:23.929Z,8.80
2018-03-25T07:29:51.895Z,8.40
2018-03-25T07:32:19.864Z,8.70
2018-03-25T07:34:47.788Z,8.70
2018-03-25T07:37:15.745Z,9.70
2018-03-25T07:39:43.642Z,8.60
2018-03-25T07:42:12.336Z,8.40
2018-03-25T07:44:40.252Z,10.30
2018-03-25T07:47:08.229Z,11.30
2018-03-25T07:49:36.187Z,12.10
2018-03-25T07:52:04.224Z,12.40
2018-03-25T07:54:32.132Z,13.00
2018-03-25T07:57:00.099Z,12.40
2018-03-25T07:59:28.011Z,13.40
2018-03-25T08:01:55.990Z,13.80
2018-03-25T08:04:23.896Z,14.50
2018-03-25T08:06:52.585Z,14.30
2018-03-25T08:09:21.341Z,14.60
2018-03-25T08:11:49.261Z,14.50
2018-03-25T08:14:17.222Z,15.20
2018-03-25T08:16:45.131Z,14.80
2018-03-25T08:19:13.090Z,15.70
2018-03-25T08:21:41.036Z,16.00
2018-03-25T08:24:09.327Z,15.90
2018-03-25T08:26:37.382Z,15.70
2018-03-25T08:29:06.226Z,16.90
2018-03-25T08:31:34.129Z,16.90
2018-03-25T08:34:02.101Z,17.30
2018-03-25T08:36:30.791Z,17.90
2018-03-25T08:38:59.615Z,18.10
2018-03-25T08:41:27.531Z,18.00
2018-03-25T08:43:55.498Z,18.50
2018-03-25T08:46:26.115Z,18.70
2018-03-25T08:48:54.088Z,18.40
2018-03-25T08:51:21.988Z,18.20
2018-03-25T08:53:50.725Z,18.50
2018-03-25T08:56:18.639Z,18.50
2018-03-25T08:58:47.376Z,17.70
2018-03-25T09:01:15.302Z,17.70
2018-03-25T09:03:44.068Z,19.50
2018-03-25T09:06:12.001Z,19.40
2018-03-25T09:08:39.968Z,20.10
2018-03-25T09:11:07.888Z,20.50
2018-03-25T09:13:36.365Z,20.90
2018-03-25T09:16:04.275Z,21.30
2018-03-25T09:18:32.240Z,21.30
2018-03-25T09:21:00.152Z,21.90
2018-03-25T09:23:28.109Z,22.40
2018-03-25T09:25:56.010Z,23.00
2018-03-25T09:28:23.976Z,22.60
2018-03-25T09:30:51.871Z,22.40
2018-03-25T09:33:20.605Z,22.40
2018-03-25T09:35:48.517Z,22.40
2018-03-25T09:38:16.484Z,22.90
2018-03-25T09:40:44.411Z,23.10
2018-03-25T09:43:12.399Z,23.50
2018-03-25T09:45:40.296Z,23.70
2018-03-25T09:48:09.027Z,24.50
2018-03-25T09:50:37.699Z,24.50
2018-03-25T09:53:05.665Z,24.50
2018-03-25T09:55:34.326Z,23.50
2018-03-25T09:58:02.300Z,23.50
2018-03-25T10:00:37.995Z,23.30
2018-03-25T10:03:11.644Z,23.30
2018-03-25T10:05:39.553Z,23.10
2018-03-25T10:08:07.519Z,23.60
2018-03-25T10:10:35.436Z,23.30
2018-03-25T10:13:03.403Z,22.80
2018-03-25T10:15:31.387Z,23.20
2018-03-25T10:17:59.358Z,23.80
2018-03-25T10:20:27.281Z,24.00
2018-03-25T10:22:55.292Z,23.40
2018-03-25T10:25:23.203Z,24.20
2018-03-25T10:27:51.936Z,24.70
2018-03-25T10:30:19.849Z,24.70
2018-03-25T10:32:48.578Z,24.60
2018-03-25T10:35:16.481Z,24.60
2018-03-25T10:37:44.475Z,25.40
2018-03-25T10:40:13.161Z,26.00
2018-03-25T10:42:41.944Z,26.40
2018-03-25T10:45:09.859Z,26.40
2018-03-25T10:47:37.824Z,24.80
2018-03-25T10:50:05.749Z,25.60
2018-03-25T10:52:33.763Z,24.80
2018-03-25T10:55:01.859Z,25.00
2018-03-25T10:57:29.808Z,22.90
2018-03-25T10:59:57.809Z,22.90
2018-03-25T11:02:25.763Z,22.20
2018-03-25T11:04:53.868Z,21.40
2018-03-25T11:07:21.767Z,20.80
2018-03-25T11:09:50.493Z,22.40
2018-03-25T11:12:18.387Z,22.40
2018-03-25T11:14:46.350Z,23.00
2018-03-25T11:17:16.795Z,21.80
2018-03-25T11:19:44.847Z,21.90
2018-03-25T11:22:12.827Z,22.40
2018-03-25T11:24:41.016Z,23.10
2018-03-25T11:27:08.949Z,23.60
2018-03-25T11:29:38.400Z,24.20
2018-03-25T11:32:06.306Z,22.60
2018-03-25T11:34:34.271Z,21.50
2018-03-25T11:37:02.706Z,21.80
2018-03-25T11:39:30.704Z,21.70
2018-03-25T11:41:59.428Z,22.00
2018-03-25T11:44:27.399Z,22.00
2018-03-25T11:46:55.307Z,23.00
2018-03-25T11:49:24.749Z,23.60
2018-03-25T11:51:52.991Z,23.00
2018-03-25T11:54:21.000Z,23.00
2018-03-25T11:56:49.684Z,22.30
2018-03-25T11:59:18.420Z,23.40
2018-03-25T12:01:46.429Z,23.30
2018-03-25T12:04:15.164Z,22.80
2018-03-25T12:06:43.063Z,22.80
2018-03-25T12:09:11.044Z,22.70
2018-03-25T12:11:38.945Z,22.00
2018-03-25T12:14:07.670Z,23.00
2018-03-25T12:16:35.597Z,23.00
2018-03-25T12:19:04.379Z,23.20
2018-03-25T12:21:32.299Z,23.20
2018-03-25T12:24:00.556Z,23.40
2018-03-25T12:26:29.030Z,23.80
2018-03-25T12:28:57.536Z,22.80
2018-03-25T12:31:26.094Z,22.50
2018-03-25T12:33:54.385Z,22.40
2018-03-25T12:36:23.139Z,22.40
2018-03-25T12:38:52.587Z,22.60
2018-03-25T12:41:21.332Z,22.60
2018-03-25T12:43:50.660Z,22.70
2018-03-25T12:46:18.809Z,22.70
2018-03-25T12:48:48.003Z,22.20
2018-03-25T12:51:16.758Z,22.10
2018-03-25T12:53:44.740Z,22.50
2018-03-25T12:56:12.647Z,22.30
2018-03-25T12:58:41.378Z,22.40
2018-03-25T13:01:10.051Z,22.60
2018-03-25T13:03:37.995Z,22.50
2018-03-25T13:06:06.692Z,20.10
2018-03-25T13:08:34.683Z,20.00
2018-03-25T13:11:02.591Z,20.50
2018-03-25T13:13:30.555Z,21.20
2018-03-25T13:15:58.480Z,21.10
2018-03-25T13:18:26.443Z,19.80
2018-03-25T13:20:54.380Z,19.70
2018-03-25T13:23:22.342Z,19.60
2018-03-25T13:25:50.283Z,19.80
2018-03-25T13:28:18.264Z,19.90
2018-03-25T13:30:46.203Z,20.30
2018-03-25T13:33:14.155Z,20.40
2018-03-25T13:35:42.128Z,20.00
2018-03-25T13:38:10.807Z,17.80
2018-03-25T13:40:39.579Z,17.90
2018-03-25T13:43:08.272Z,17.60
2018-03-25T13:45:37.004Z,17.20
2018-03-25T13:48:04.988Z,17.20
2018-03-25T13:50:32.972Z,17.60
2018-03-25T13:53:01.941Z,17.70
2018-03-25T13:55:30.016Z,17.80
2018-03-25T13:57:57.922Z,17.60
2018-03-25T14:00:25.899Z,17.20
2018-03-25T14:02:53.830Z,17.30
2018-03-25T14:05:21.808Z,17.20
2018-03-25T14:07:49.795Z,17.10
2018-03-25T14:10:17.859Z,16.50
2018-03-25T14:12:45.800Z,15.90
2018-03-25T14:15:13.828Z,15.40
2018-03-25T14:17:41.749Z,15.20
2018-03-25T14:20:09.780Z,14.90
2018-03-25T14:22:38.487Z,14.70
2018-03-25T14:25:09.185Z,14.70
2018-03-25T14:27:37.090Z,14.90
2018-03-25T14:30:05.210Z,15.20
2018-03-25T14:32:33.126Z,15.60
2018-03-25T14:35:01.094Z,15.70
2018-03-25T14:37:29.778Z,15.30
2018-03-25T14:39:58.509Z,15.00
2018-03-25T14:42:26.424Z,14.90
2018-03-25T14:44:55.181Z,15.00
2018-03-25T14:47:23.159Z,14.90
2018-03-25T14:49:51.181Z,14.80
2018-03-25T14:52:19.092Z,14.40
2018-03-25T14:54:47.081Z,14.40
2018-03-25T14:57:15.003Z,14.50
2018-03-25T14:59:43.140Z,14.30
2018-03-25T15:02:11.108Z,14.30
2018-03-25T15:04:39.075Z,14.20
2018-03-25T15:07:09.296Z,14.00
2018-03-25T15:09:38.087Z,13.70
2018-03-25T15:12:06.006Z,13.70
2018-03-25T15:14:34.000Z,13.90
2018-03-25T15:17:01.914Z,13.90
2018-03-25T15:19:30.661Z,14.00
2018-03-25T15:21:58.577Z,13.90
2018-03-25T15:24:27.318Z,14.10
2018-03-25T15:26:55.918Z,14.10
2018-03-25T15:29:23.929Z,14.10
2018-03-25T15:31:55.174Z,14.00
2018-03-25T15:34:23.188Z,14.00
2018-03-25T15:36:51.102Z,13.80
2018-03-25T15:39:19.835Z,13.80
2018-03-25T15:41:47.757Z,13.80
2018-03-25T15:44:16.509Z,13.50
2018-03-25T15:46:44.455Z,13.50
2018-03-25T15:49:12.411Z,13.40
2018-03-25T15:51:40.329Z,13.40
2018-03-25T15:54:08.332Z,13.40
2018-03-25T15:56:37.107Z,13.60
2018-03-25T15:59:05.127Z,13.60
2018-03-25T16:01:33.036Z,13.50
2018-03-25T16:04:01.200Z,13.50
2018-03-25T16:06:29.112Z,13.50
2018-03-25T16:08:57.868Z,13.30
2018-03-25T16:11:25.836Z,13.30
2018-03-25T16:13:53.752Z,13.20
2018-03-25T16:16:21.734Z,13.00
2018-03-25T16:18:53.360Z,12.90
2018-03-25T16:21:24.070Z,12.90
2018-03-25T16:23:52.608Z,12.80
2018-03-25T16:26:20.743Z,12.60
2018-03-25T16:28:54.189Z,12.40
2018-03-25T16:31:26.800Z,12.40
2018-03-25T16:34:00.256Z,12.30
2018-03-25T16:36:36.786Z,12.20
2018-03-25T16:39:13.102Z,12.20
2018-03-25T16:41:46.304Z,12.20
2018-03-25T16:44:17.207Z,12.20
2018-03-25T16:46:47.841Z,12.10
2018-03-25T16:49:19.996Z,12.00
2018-03-25T16:51:51.078Z,12.00
2018-03-25T16:54:23.284Z,11.90
2018-03-25T16:56:54.736Z,11.90
2018-03-25T16:59:26.025Z,11.80
2018-03-25T17:01:58.440Z,11.80
2018-03-25T17:04:30.280Z,11.80
2018-03-25T17:07:03.709Z,11.70
2018-03-25T17:09:37.532Z,11.70
2018-03-25T17:12:11.417Z,11.50
2018-03-25T17:14:45.110Z,11.50
2018-03-25T17:17:17.980Z,11.50
2018-03-25T17:19:49.235Z,11.50
2018-03-25T17:22:21.429Z,11.40
2018-03-25T17:24:56.201Z,11.30
2018-03-25T17:27:26.747Z,11.30
2018-03-25T17:29:56.591Z,11.20
2018-03-25T17:32:27.802Z,11.20
2018-03-25T17:35:00.245Z,11.10
2018-03-25T17:37:30.452Z,11.10
2018-03-25T17:40:01.721Z,11.00
2018-03-25T17:45:08.013Z,10.90
2018-03-25T17:47:40.141Z,10.90
2018-03-25T17:50:11.588Z,10.80
2018-03-25T17:52:43.614Z,10.70
2018-03-25T17:55:16.289Z,10.80
2018-03-25T17:57:47.402Z,10.80
2018-03-25T18:00:15.475Z,10.70
2018-03-25T18:02:44.190Z,10.70
2018-03-25T18:05:15.962Z,10.60
2018-03-25T18:07:47.899Z,10.60
2018-03-25T18:10:21.440Z,10.60
2018-03-25T18:12:54.473Z,10.50
2018-03-25T18:15:29.370Z,10.30
2018-03-25T18:18:03.181Z,10.30
2018-03-25T18:20:36.320Z,10.30
2018-03-25T18:23:10.374Z,10.20
2018-03-25T18:25:39.302Z,10.10
2018-03-25T18:28:09.340Z,10.00
2018-03-25T18:30:42.953Z,10.00
2018-03-25T18:33:17.003Z,9.90
2018-03-25T18:35:49.315Z,9.90
2018-03-25T18:38:23.983Z,9.90
2018-03-25T18:40:55.766Z,9.90
2018-03-25T18:43:27.665Z,10.00
2018-03-25T18:46:00.160Z,10.00
2018-03-25T18:48:31.174Z,10.00
2018-03-25T18:51:02.028Z,10.00
2018-03-25T18:53:33.552Z,10.00
2018-03-25T18:56:07.937Z,10.10
2018-03-25T18:58:40.616Z,10.10
2018-03-25T19:01:13.185Z,10.00
2018-03-25T19:03:44.716Z,9.90
2018-03-25T19:06:17.132Z,9.90
2018-03-25T19:08:48.167Z,10.00
2018-03-25T19:11:17.871Z,10.00
2018-03-25T19:13:48.399Z,9.90
2018-03-25T19:16:20.652Z,9.80
2018-03-25T19:18:49.396Z,9.80
2018-03-25T19:21:21.044Z,9.80
2018-03-25T19:23:49.348Z,9.80
2018-03-25T19:26:21.944Z,9.80
2018-03-25T19:28:52.801Z,9.80
2018-03-25T19:31:22.237Z,9.80
2018-03-25T19:33:50.792Z,9.70
2018-03-25T19:36:24.228Z,9.50
2018-03-25T19:38:55.332Z,9.50
2018-03-25T19:41:24.076Z,9.50
2018-03-25T19:43:52.203Z,9.40
2018-03-25T19:46:22.540Z,9.40
2018-03-25T19:48:52.489Z,9.20
2018-03-25T19:51:22.222Z,9.10
2018-03-25T19:53:53.012Z,9.20
2018-03-25T19:56:26.818Z,9.00
2018-03-25T19:58:58.220Z,9.00
2018-03-25T20:01:30.446Z,9.00
2018-03-25T20:04:01.439Z,9.00
2018-03-25T20:06:32.556Z,8.90
2018-03-25T20:09:05.268Z,8.90
2018-03-25T20:11:36.306Z,8.90
2018-03-25T20:14:07.493Z,8.90
2018-03-25T20:16:37.276Z,8.80
2018-03-25T20:19:05.943Z,8.80
2018-03-25T20:21:35.866Z,8.70
2018-03-25T20:24:09.991Z,8.70
2018-03-25T20:26:45.575Z,8.70
2018-03-25T20:29:14.428Z,8.70
2018-03-25T20:31:42.914Z,8.70
2018-03-25T20:34:13.018Z,8.70
2018-03-25T20:36:41.284Z,8.70
2018-03-25T20:39:11.907Z,8.70
2018-03-25T20:41:42.260Z,8.60
2018-03-25T20:44:12.537Z,8.70
2018-03-25T20:46:43.925Z,8.60
2018-03-25T20:49:15.191Z,8.70
2018-03-25T20:51:43.357Z,8.60
2018-03-25T20:54:14.522Z,8.60
2018-03-25T20:56:43.498Z,8.60
2018-03-25T20:59:12.996Z,8.50
2018-03-25T21:01:40.979Z,8.50
2018-03-25T21:04:09.118Z,8.50
2018-03-25T21:06:37.353Z,8.50
2018-03-25T21:09:09.864Z,8.40
2018-03-25T21:11:39.500Z,8.30
2018-03-25T21:14:07.405Z,8.40
2018-03-25T21:16:36.565Z,8.20
2018-03-25T21:19:04.527Z,8.20
2018-03-25T21:21:32.508Z,8.20
2018-03-25T21:24:00.439Z,8.20
2018-03-25T21:26:28.419Z,8.10
2018-03-25T21:28:56.356Z,8.10
2018-03-25T21:31:25.083Z,8.10
2018-03-25T21:33:53.016Z,8.10
2018-03-25T21:36:21.807Z,7.90
2018-03-25T21:38:49.780Z,8.00
2018-03-25T21:41:17.807Z,8.00
2018-03-25T21:43:47.204Z,8.00
2018-03-25T21:46:16.310Z,8.00
2018-03-25T21:48:45.270Z,7.90
2018-03-25T21:51:13.288Z,7.90
2018-03-25T21:53:41.218Z,7.90
2018-03-25T21:56:09.212Z,7.80
2018-03-25T21:58:40.626Z,7.70
2018-03-25T22:01:11.643Z,7.60
2018-03-25T22:03:40.416Z,7.50
2018-03-25T22:06:08.826Z,7.40
2018-03-25T22:08:37.274Z,7.40
2018-03-25T22:11:06.155Z,7.30
2018-03-25T22:13:34.758Z,7.30
2018-03-25T22:16:03.125Z,7.20
2018-03-25T22:18:33.781Z,7.20
2018-03-25T22:21:02.977Z,7.20
2018-03-25T22:23:32.040Z,7.30
2018-03-25T22:26:01.766Z,7.20
2018-03-25T22:28:30.267Z,7.20
2018-03-25T22:30:58.889Z,7.30
2018-03-25T22:33:27.868Z,7.20
2018-03-25T22:35:56.793Z,7.20
2018-03-25T22:38:25.222Z,7.30
2018-03-25T22:40:54.148Z,7.30
2018-03-25T22:43:23.980Z,7.30
2018-03-25T22:45:54.660Z,7.30
2018-03-25T22:48:24.485Z,7.20
2018-03-25T22:50:54.941Z,7.20
2018-03-25T22:53:24.059Z,7.20
2018-03-25T22:55:53.286Z,7.20
2018-03-25T22:58:21.770Z,7.10
2018-03-25T23:00:51.392Z,7.10
2018-03-25T23:03:20.935Z,7.10
2018-03-25T23:05:49.300Z,7.10
2018-03-25T23:08:18.471Z,7.10
2018-03-25T23:10:47.220Z,7.00
2018-03-25T23:13:16.084Z,7.10
2018-03-25T23:15:44.924Z,7.00
2018-03-25T23:18:13.341Z,7.00
2018-03-25T23:20:41.305Z,7.00
2018-03-25T23:23:09.241Z,7.00
2018-03-25T23:25:40.561Z,7.00
2018-03-25T23:28:11.899Z,6.90
2018-03-25T23:30:40.554Z,6.90
2018-03-25T23:33:08.942Z,7.00
2018-03-25T23:35:37.983Z,6.90
2018-03-25T23:38:07.213Z,6.90
2018-03-25T23:40:35.699Z,6.90
2018-03-25T23:43:04.464Z,6.90
2018-03-25T23:45:33.616Z,6.80
2018-03-25T23:48:02.476Z,6.90
2018-03-25T23:50:31.392Z,6.80
2018-03-25T23:53:00.429Z,6.70
2018-03-25T23:55:28.800Z,6.70
2018-03-25T23:57:57.057Z,6.70
